sensor_id;sensor_type;location;lat;lon;timestamp;temperature;humidity
38592;DHT22;24356;48.460;11.450;2022-11-25T00:01:13;1.00;94.70
38592;DHT22;24356;48.460;11.450;2022-11-25T00:03:40;1.00;94.70
38592;DHT22;24356;48.460;11.450;2022-11-25T00:08:36;1.00;94.60
38592;DHT22;24356;48.460;11.450;2022-11-25T00:11:03;1.00;94.60
38592;DHT22;24356;48.460;11.450;2022-11-25T00:13:29;1.00;94.80
38592;DHT22;24356;48.460;11.450;2022-11-25T00:15:55;1.00;94.70
38592;DHT22;24356;48.460;11.450;2022-11-25T00:18:20;1.00;94.70
38592;DHT22;24356;48.460;11.450;2022-11-25T00:20:46;1.00;94.60
38592;DHT22;24356;48.460;11.450;2022-11-25T00:23:12;0.90;94.60
38592;DHT22;24356;48.460;11.450;2022-11-25T00:25:37;0.90;94.70
38592;DHT22;24356;48.460;11.450;2022-11-25T00:28:03;0.90;94.60
38592;DHT22;24356;48.460;11.450;2022-11-25T00:30:28;0.90;94.70
38592;DHT22;24356;48.460;11.450;2022-11-25T00:32:54;0.90;94.70
38592;DHT22;24356;48.460;11.450;2022-11-25T00:35:20;0.90;94.60
38592;DHT22;24356;48.460;11.450;2022-11-25T00:37:46;0.90;94.60
38592;DHT22;24356;48.460;11.450;2022-11-25T00:40:12;0.90;94.60
38592;DHT22;24356;48.460;11.450;2022-11-25T00:42:37;0.90;94.60
38592;DHT22;24356;48.460;11.450;2022-11-25T00:45:22;0.90;94.60
38592;DHT22;24356;48.460;11.450;2022-11-25T00:47:47;0.80;94.50
38592;DHT22;24356;48.460;11.450;2022-11-25T00:50:13;0.80;94.60
38592;DHT22;24356;48.460;11.450;2022-11-25T00:52:39;0.80;94.60
38592;DHT22;24356;48.460;11.450;2022-11-25T00:55:05;0.80;94.60
38592;DHT22;24356;48.460;11.450;2022-11-25T00:57:30;0.80;94.50
38592;DHT22;24356;48.460;11.450;2022-11-25T00:59:56;0.80;94.50
38592;DHT22;24356;48.460;11.450;2022-11-25T01:02:22;0.80;94.50
38592;DHT22;24356;48.460;11.450;2022-11-25T01:04:47;0.70;94.60
38592;DHT22;24356;48.460;11.450;2022-11-25T01:07:13;0.70;94.50
38592;DHT22;24356;48.460;11.450;2022-11-25T01:09:39;0.70;94.50
38592;DHT22;24356;48.460;11.450;2022-11-25T01:12:05;0.70;94.50
38592;DHT22;24356;48.460;11.450;2022-11-25T01:14:32;0.70;94.40
38592;DHT22;24356;48.460;11.450;2022-11-25T01:16:58;0.70;94.40
38592;DHT22;24356;48.460;11.450;2022-11-25T01:19:24;0.60;94.40
38592;DHT22;24356;48.460;11.450;2022-11-25T01:21:50;0.60;94.50
38592;DHT22;24356;48.460;11.450;2022-11-25T01:24:16;0.60;94.50
38592;DHT22;24356;48.460;11.450;2022-11-25T01:26:42;0.60;94.50
38592;DHT22;24356;48.460;11.450;2022-11-25T01:29:16;0.60;94.40
38592;DHT22;24356;48.460;11.450;2022-11-25T01:31:42;0.60;94.40
38592;DHT22;24356;48.460;11.450;2022-11-25T01:34:20;0.60;94.40
38592;DHT22;24356;48.460;11.450;2022-11-25T01:36:46;0.50;94.40
38592;DHT22;24356;48.460;11.450;2022-11-25T01:39:22;0.50;94.50
38592;DHT22;24356;48.460;11.450;2022-11-25T01:41:49;0.50;94.60
38592;DHT22;24356;48.460;11.450;2022-11-25T01:44:20;0.50;94.40
38592;DHT22;24356;48.460;11.450;2022-11-25T01:47:11;0.50;94.50
38592;DHT22;24356;48.460;11.450;2022-11-25T01:50:00;0.50;94.50
38592;DHT22;24356;48.460;11.450;2022-11-25T01:52:30;0.50;94.50
38592;DHT22;24356;48.460;11.450;2022-11-25T01:57:28;0.40;94.50
38592;DHT22;24356;48.460;11.450;2022-11-25T01:59:59;0.40;94.50
38592;DHT22;24356;48.460;11.450;2022-11-25T02:02:27;0.40;94.40
38592;DHT22;24356;48.460;11.450;2022-11-25T02:04:53;0.40;94.40
38592;DHT22;24356;48.460;11.450;2022-11-25T02:07:26;0.40;94.40
38592;DHT22;24356;48.460;11.450;2022-11-25T02:09:53;0.40;94.50
38592;DHT22;24356;48.460;11.450;2022-11-25T02:12:20;0.40;94.50
38592;DHT22;24356;48.460;11.450;2022-11-25T02:14:48;0.40;94.50
38592;DHT22;24356;48.460;11.450;2022-11-25T02:17:15;0.40;94.50
38592;DHT22;24356;48.460;11.450;2022-11-25T02:22:48;0.40;94.40
38592;DHT22;24356;48.460;11.450;2022-11-25T02:25:19;0.40;94.50
38592;DHT22;24356;48.460;11.450;2022-11-25T02:27:50;0.30;94.40
38592;DHT22;24356;48.460;11.450;2022-11-25T02:30:17;0.30;94.50
38592;DHT22;24356;48.460;11.450;2022-11-25T02:32:46;0.40;94.50
38592;DHT22;24356;48.460;11.450;2022-11-25T02:35:28;0.40;94.50
38592;DHT22;24356;48.460;11.450;2022-11-25T02:38:00;0.40;94.40
38592;DHT22;24356;48.460;11.450;2022-11-25T02:40:28;0.30;94.50
38592;DHT22;24356;48.460;11.450;2022-11-25T02:42:56;0.40;94.40
38592;DHT22;24356;48.460;11.450;2022-11-25T02:45:32;0.40;94.50
38592;DHT22;24356;48.460;11.450;2022-11-25T02:47:59;0.40;94.50
38592;DHT22;24356;48.460;11.450;2022-11-25T02:50:25;0.30;94.40
38592;DHT22;24356;48.460;11.450;2022-11-25T02:52:51;0.40;94.40
38592;DHT22;24356;48.460;11.450;2022-11-25T02:55:16;0.40;94.40
38592;DHT22;24356;48.460;11.450;2022-11-25T02:57:42;0.40;94.40
38592;DHT22;24356;48.460;11.450;2022-11-25T03:00:08;0.40;94.40
38592;DHT22;24356;48.460;11.450;2022-11-25T03:02:34;0.40;94.40
38592;DHT22;24356;48.460;11.450;2022-11-25T03:05:00;0.40;94.40
38592;DHT22;24356;48.460;11.450;2022-11-25T03:07:25;0.40;94.40
38592;DHT22;24356;48.460;11.450;2022-11-25T03:09:51;0.40;94.40
38592;DHT22;24356;48.460;11.450;2022-11-25T03:12:17;0.40;94.40
38592;DHT22;24356;48.460;11.450;2022-11-25T03:14:45;0.40;94.30
38592;DHT22;24356;48.460;11.450;2022-11-25T03:17:11;0.30;94.30
38592;DHT22;24356;48.460;11.450;2022-11-25T03:19:36;0.30;94.30
38592;DHT22;24356;48.460;11.450;2022-11-25T03:22:02;0.30;94.40
38592;DHT22;24356;48.460;11.450;2022-11-25T03:24:28;0.30;94.30
38592;DHT22;24356;48.460;11.450;2022-11-25T03:26:54;0.30;94.30
38592;DHT22;24356;48.460;11.450;2022-11-25T03:29:21;0.30;94.30
38592;DHT22;24356;48.460;11.450;2022-11-25T03:31:46;0.30;94.40
38592;DHT22;24356;48.460;11.450;2022-11-25T03:34:12;0.30;94.30
38592;DHT22;24356;48.460;11.450;2022-11-25T03:36:37;0.30;94.30
38592;DHT22;24356;48.460;11.450;2022-11-25T03:39:03;0.30;94.30
38592;DHT22;24356;48.460;11.450;2022-11-25T03:41:29;0.30;94.30
38592;DHT22;24356;48.460;11.450;2022-11-25T03:43:55;0.30;94.30
38592;DHT22;24356;48.460;11.450;2022-11-25T03:46:20;0.30;94.40
38592;DHT22;24356;48.460;11.450;2022-11-25T03:48:46;0.30;94.50
38592;DHT22;24356;48.460;11.450;2022-11-25T03:51:12;0.30;94.30
38592;DHT22;24356;48.460;11.450;2022-11-25T03:53:37;0.30;94.30
38592;DHT22;24356;48.460;11.450;2022-11-25T03:56:03;0.30;94.20
38592;DHT22;24356;48.460;11.450;2022-11-25T03:58:29;0.30;94.30
38592;DHT22;24356;48.460;11.450;2022-11-25T04:00:59;0.30;94.20
38592;DHT22;24356;48.460;11.450;2022-11-25T04:03:25;0.30;94.20
38592;DHT22;24356;48.460;11.450;2022-11-25T04:05:50;0.30;94.20
38592;DHT22;24356;48.460;11.450;2022-11-25T04:08:16;0.30;94.20
38592;DHT22;24356;48.460;11.450;2022-11-25T04:10:42;0.30;94.20
38592;DHT22;24356;48.460;11.450;2022-11-25T04:13:07;0.30;94.20
38592;DHT22;24356;48.460;11.450;2022-11-25T04:15:33;0.30;94.20
38592;DHT22;24356;48.460;11.450;2022-11-25T04:17:59;0.30;94.20
38592;DHT22;24356;48.460;11.450;2022-11-25T04:20:24;0.30;94.20
38592;DHT22;24356;48.460;11.450;2022-11-25T04:22:50;0.20;94.20
38592;DHT22;24356;48.460;11.450;2022-11-25T04:25:16;0.20;94.10
38592;DHT22;24356;48.460;11.450;2022-11-25T04:27:43;0.20;94.10
38592;DHT22;24356;48.460;11.450;2022-11-25T04:30:09;0.20;94.20
38592;DHT22;24356;48.460;11.450;2022-11-25T04:32:36;0.20;94.10
38592;DHT22;24356;48.460;11.450;2022-11-25T04:35:03;0.20;94.10
38592;DHT22;24356;48.460;11.450;2022-11-25T04:37:28;0.20;94.10
38592;DHT22;24356;48.460;11.450;2022-11-25T04:39:54;0.20;94.00
38592;DHT22;24356;48.460;11.450;2022-11-25T04:42:20;0.20;94.10
38592;DHT22;24356;48.460;11.450;2022-11-25T04:44:58;0.20;94.10
38592;DHT22;24356;48.460;11.450;2022-11-25T04:47:24;0.10;94.00
38592;DHT22;24356;48.460;11.450;2022-11-25T04:49:50;0.20;94.10
38592;DHT22;24356;48.460;11.450;2022-11-25T04:52:15;0.10;94.00
38592;DHT22;24356;48.460;11.450;2022-11-25T04:54:41;0.10;94.00
38592;DHT22;24356;48.460;11.450;2022-11-25T04:57:11;0.10;94.10
38592;DHT22;24356;48.460;11.450;2022-11-25T04:59:38;0.10;94.10
38592;DHT22;24356;48.460;11.450;2022-11-25T05:02:21;0.10;94.00
38592;DHT22;24356;48.460;11.450;2022-11-25T05:04:49;0.10;94.00
38592;DHT22;24356;48.460;11.450;2022-11-25T05:07:17;0.10;94.00
38592;DHT22;24356;48.460;11.450;2022-11-25T05:09:43;0.10;94.00
38592;DHT22;24356;48.460;11.450;2022-11-25T05:12:12;0.10;94.10
38592;DHT22;24356;48.460;11.450;2022-11-25T05:14:39;0.10;94.00
38592;DHT22;24356;48.460;11.450;2022-11-25T05:17:06;0.10;94.00
38592;DHT22;24356;48.460;11.450;2022-11-25T05:19:32;0.10;93.90
38592;DHT22;24356;48.460;11.450;2022-11-25T05:22:00;0.10;93.90
38592;DHT22;24356;48.460;11.450;2022-11-25T05:24:26;0.00;94.00
38592;DHT22;24356;48.460;11.450;2022-11-25T05:26:52;0.00;94.00
38592;DHT22;24356;48.460;11.450;2022-11-25T05:29:17;0.00;93.90
38592;DHT22;24356;48.460;11.450;2022-11-25T05:31:43;0.00;93.90
38592;DHT22;24356;48.460;11.450;2022-11-25T05:34:09;0.00;93.90
38592;DHT22;24356;48.460;11.450;2022-11-25T05:36:34;0.00;93.90
38592;DHT22;24356;48.460;11.450;2022-11-25T05:39:00;0.00;93.90
38592;DHT22;24356;48.460;11.450;2022-11-25T05:41:26;0.00;93.90
38592;DHT22;24356;48.460;11.450;2022-11-25T05:43:52;-0.10;93.90
38592;DHT22;24356;48.460;11.450;2022-11-25T05:46:18;-0.10;93.90
38592;DHT22;24356;48.460;11.450;2022-11-25T05:48:44;-0.10;94.00
38592;DHT22;24356;48.460;11.450;2022-11-25T05:51:09;-0.10;94.00
38592;DHT22;24356;48.460;11.450;2022-11-25T05:53:36;-0.10;94.00
38592;DHT22;24356;48.460;11.450;2022-11-25T05:56:04;-0.10;94.00
38592;DHT22;24356;48.460;11.450;2022-11-25T05:58:31;-0.10;94.00
38592;DHT22;24356;48.460;11.450;2022-11-25T06:00:57;-0.10;94.00
38592;DHT22;24356;48.460;11.450;2022-11-25T06:03:27;-0.10;94.00
38592;DHT22;24356;48.460;11.450;2022-11-25T06:05:55;-0.10;94.00
38592;DHT22;24356;48.460;11.450;2022-11-25T06:08:21;-0.10;94.00
38592;DHT22;24356;48.460;11.450;2022-11-25T06:10:46;-0.10;94.00
38592;DHT22;24356;48.460;11.450;2022-11-25T06:13:12;-0.10;94.00
38592;DHT22;24356;48.460;11.450;2022-11-25T06:15:42;-0.10;94.00
38592;DHT22;24356;48.460;11.450;2022-11-25T06:18:09;-0.10;94.00
38592;DHT22;24356;48.460;11.450;2022-11-25T06:20:35;-0.10;93.90
38592;DHT22;24356;48.460;11.450;2022-11-25T06:23:01;-0.10;93.90
38592;DHT22;24356;48.460;11.450;2022-11-25T06:25:27;-0.10;94.00
38592;DHT22;24356;48.460;11.450;2022-11-25T06:27:53;-0.10;94.00
38592;DHT22;24356;48.460;11.450;2022-11-25T06:30:19;0.00;94.00
38592;DHT22;24356;48.460;11.450;2022-11-25T06:32:45;0.00;93.90
38592;DHT22;24356;48.460;11.450;2022-11-25T06:35:11;0.00;93.90
38592;DHT22;24356;48.460;11.450;2022-11-25T06:37:37;0.00;93.90
38592;DHT22;24356;48.460;11.450;2022-11-25T06:40:03;0.00;94.00
38592;DHT22;24356;48.460;11.450;2022-11-25T06:42:29;0.00;93.90
38592;DHT22;24356;48.460;11.450;2022-11-25T06:44:55;0.10;93.90
38592;DHT22;24356;48.460;11.450;2022-11-25T06:47:20;0.10;93.90
38592;DHT22;24356;48.460;11.450;2022-11-25T06:49:46;0.10;93.90
38592;DHT22;24356;48.460;11.450;2022-11-25T06:52:11;0.10;93.90
38592;DHT22;24356;48.460;11.450;2022-11-25T06:54:38;0.10;93.90
38592;DHT22;24356;48.460;11.450;2022-11-25T06:57:06;0.10;93.90
38592;DHT22;24356;48.460;11.450;2022-11-25T06:59:32;0.20;93.90
38592;DHT22;24356;48.460;11.450;2022-11-25T07:01:58;0.20;93.90
38592;DHT22;24356;48.460;11.450;2022-11-25T07:04:24;0.20;93.90
38592;DHT22;24356;48.460;11.450;2022-11-25T07:06:50;0.20;93.90
38592;DHT22;24356;48.460;11.450;2022-11-25T07:09:15;0.30;93.90
38592;DHT22;24356;48.460;11.450;2022-11-25T07:11:41;0.30;93.90
38592;DHT22;24356;48.460;11.450;2022-11-25T07:14:10;0.30;93.90
38592;DHT22;24356;48.460;11.450;2022-11-25T07:16:38;0.30;93.90
38592;DHT22;24356;48.460;11.450;2022-11-25T07:19:03;0.40;93.80
38592;DHT22;24356;48.460;11.450;2022-11-25T07:21:30;0.40;93.80
38592;DHT22;24356;48.460;11.450;2022-11-25T07:23:58;0.40;93.70
38592;DHT22;24356;48.460;11.450;2022-11-25T07:26:27;0.40;93.80
38592;DHT22;24356;48.460;11.450;2022-11-25T07:28:54;0.50;93.70
38592;DHT22;24356;48.460;11.450;2022-11-25T07:31:28;0.50;93.70
38592;DHT22;24356;48.460;11.450;2022-11-25T07:34:00;0.50;93.70
38592;DHT22;24356;48.460;11.450;2022-11-25T07:36:27;0.50;93.80
38592;DHT22;24356;48.460;11.450;2022-11-25T07:38:53;0.60;93.80
38592;DHT22;24356;48.460;11.450;2022-11-25T07:41:24;0.60;93.80
38592;DHT22;24356;48.460;11.450;2022-11-25T07:43:55;0.60;93.80
38592;DHT22;24356;48.460;11.450;2022-11-25T07:48:51;0.70;93.80
38592;DHT22;24356;48.460;11.450;2022-11-25T07:51:23;0.80;93.60
38592;DHT22;24356;48.460;11.450;2022-11-25T07:53:49;0.80;93.80
38592;DHT22;24356;48.460;11.450;2022-11-25T07:56:16;0.90;93.80
38592;DHT22;24356;48.460;11.450;2022-11-25T07:58:44;0.90;93.90
38592;DHT22;24356;48.460;11.450;2022-11-25T08:01:11;1.00;93.80
38592;DHT22;24356;48.460;11.450;2022-11-25T08:03:38;1.10;93.80
38592;DHT22;24356;48.460;11.450;2022-11-25T08:06:10;1.10;93.80
38592;DHT22;24356;48.460;11.450;2022-11-25T08:08:37;1.20;93.80
38592;DHT22;24356;48.460;11.450;2022-11-25T08:11:07;1.20;93.90
38592;DHT22;24356;48.460;11.450;2022-11-25T08:13:33;1.30;93.90
38592;DHT22;24356;48.460;11.450;2022-11-25T08:15:59;1.40;93.70
38592;DHT22;24356;48.460;11.450;2022-11-25T08:18:25;1.40;93.60
38592;DHT22;24356;48.460;11.450;2022-11-25T08:20:56;1.50;93.50
38592;DHT22;24356;48.460;11.450;2022-11-25T08:23:22;1.50;93.30
38592;DHT22;24356;48.460;11.450;2022-11-25T08:25:48;1.50;93.20
38592;DHT22;24356;48.460;11.450;2022-11-25T08:28:13;1.50;93.30
38592;DHT22;24356;48.460;11.450;2022-11-25T08:30:39;1.60;93.30
38592;DHT22;24356;48.460;11.450;2022-11-25T08:33:05;1.60;93.20
38592;DHT22;24356;48.460;11.450;2022-11-25T08:35:32;1.60;93.30
38592;DHT22;24356;48.460;11.450;2022-11-25T08:38:06;1.70;93.30
38592;DHT22;24356;48.460;11.450;2022-11-25T08:40:33;1.70;93.30
38592;DHT22;24356;48.460;11.450;2022-11-25T08:42:59;1.70;93.10
38592;DHT22;24356;48.460;11.450;2022-11-25T08:45:25;1.80;93.10
38592;DHT22;24356;48.460;11.450;2022-11-25T08:47:51;1.90;92.90
38592;DHT22;24356;48.460;11.450;2022-11-25T08:50:17;2.00;92.50
38592;DHT22;24356;48.460;11.450;2022-11-25T08:52:43;2.20;92.00
38592;DHT22;24356;48.460;11.450;2022-11-25T08:55:09;2.30;91.90
38592;DHT22;24356;48.460;11.450;2022-11-25T08:57:35;2.40;91.40
38592;DHT22;24356;48.460;11.450;2022-11-25T09:00:00;2.50;91.20
38592;DHT22;24356;48.460;11.450;2022-11-25T09:02:26;2.60;91.10
38592;DHT22;24356;48.460;11.450;2022-11-25T09:04:52;2.60;91.30
38592;DHT22;24356;48.460;11.450;2022-11-25T09:07:17;2.60;91.40
38592;DHT22;24356;48.460;11.450;2022-11-25T09:09:43;2.60;91.30
38592;DHT22;24356;48.460;11.450;2022-11-25T09:12:09;2.70;91.30
38592;DHT22;24356;48.460;11.450;2022-11-25T09:14:34;2.70;91.10
38592;DHT22;24356;48.460;11.450;2022-11-25T09:17:00;2.70;91.20
38592;DHT22;24356;48.460;11.450;2022-11-25T09:19:26;2.70;91.20
38592;DHT22;24356;48.460;11.450;2022-11-25T09:21:52;2.70;91.00
38592;DHT22;24356;48.460;11.450;2022-11-25T09:24:18;2.80;90.90
38592;DHT22;24356;48.460;11.450;2022-11-25T09:26:44;2.80;90.60
38592;DHT22;24356;48.460;11.450;2022-11-25T09:29:11;2.80;91.00
38592;DHT22;24356;48.460;11.450;2022-11-25T09:31:38;2.90;90.90
38592;DHT22;24356;48.460;11.450;2022-11-25T09:34:04;2.90;90.70
38592;DHT22;24356;48.460;11.450;2022-11-25T09:36:29;2.90;90.60
38592;DHT22;24356;48.460;11.450;2022-11-25T09:38:55;2.90;90.50
38592;DHT22;24356;48.460;11.450;2022-11-25T09:55:34;3.30;89.90
38592;DHT22;24356;48.460;11.450;2022-11-25T10:00:51;3.50;89.80
38592;DHT22;24356;48.460;11.450;2022-11-25T10:08:38;3.80;89.30
38592;DHT22;24356;48.460;11.450;2022-11-25T10:14:04;4.00;88.80
38592;DHT22;24356;48.460;11.450;2022-11-25T10:21:39;4.20;88.70
38592;DHT22;24356;48.460;11.450;2022-11-25T10:24:13;4.30;88.60
38592;DHT22;24356;48.460;11.450;2022-11-25T10:26:42;4.40;88.40
38592;DHT22;24356;48.460;11.450;2022-11-25T10:29:29;4.40;88.10
38592;DHT22;24356;48.460;11.450;2022-11-25T10:32:24;4.50;87.90
38592;DHT22;24356;48.460;11.450;2022-11-25T10:35:06;4.50;87.90
38592;DHT22;24356;48.460;11.450;2022-11-25T10:37:39;4.60;87.60
38592;DHT22;24356;48.460;11.450;2022-11-25T10:40:13;4.60;87.50
38592;DHT22;24356;48.460;11.450;2022-11-25T10:42:38;4.70;87.50
38592;DHT22;24356;48.460;11.450;2022-11-25T10:45:04;4.70;87.30
38592;DHT22;24356;48.460;11.450;2022-11-25T10:47:35;4.60;87.20
38592;DHT22;24356;48.460;11.450;2022-11-25T10:50:17;4.60;87.20
38592;DHT22;24356;48.460;11.450;2022-11-25T10:53:12;4.60;87.20
38592;DHT22;24356;48.460;11.450;2022-11-25T10:55:58;4.60;87.10
38592;DHT22;24356;48.460;11.450;2022-11-25T10:58:35;4.60;87.10
38592;DHT22;24356;48.460;11.450;2022-11-25T11:01:22;4.70;87.00
38592;DHT22;24356;48.460;11.450;2022-11-25T11:04:01;4.70;87.30
38592;DHT22;24356;48.460;11.450;2022-11-25T11:06:34;4.70;87.30
38592;DHT22;24356;48.460;11.450;2022-11-25T11:09:02;4.70;87.10
38592;DHT22;24356;48.460;11.450;2022-11-25T11:11:28;4.70;87.40
38592;DHT22;24356;48.460;11.450;2022-11-25T11:16:36;4.70;87.00
38592;DHT22;24356;48.460;11.450;2022-11-25T11:19:03;4.70;87.00
38592;DHT22;24356;48.460;11.450;2022-11-25T11:21:32;4.80;87.40
38592;DHT22;24356;48.460;11.450;2022-11-25T11:24:00;4.80;87.80
38592;DHT22;24356;48.460;11.450;2022-11-25T11:26:33;4.80;87.60
38592;DHT22;24356;48.460;11.450;2022-11-25T11:29:11;4.80;87.80
38592;DHT22;24356;48.460;11.450;2022-11-25T11:31:42;4.90;87.70
38592;DHT22;24356;48.460;11.450;2022-11-25T11:37:24;5.00;87.60
38592;DHT22;24356;48.460;11.450;2022-11-25T12:04:21;6.00;87.10
38592;DHT22;24356;48.460;11.450;2022-11-25T12:07:08;6.00;86.80
38592;DHT22;24356;48.460;11.450;2022-11-25T12:10:30;6.10;86.40
38592;DHT22;24356;48.460;11.450;2022-11-25T12:13:10;6.20;86.40
38592;DHT22;24356;48.460;11.450;2022-11-25T12:16:07;6.30;85.90
38592;DHT22;24356;48.460;11.450;2022-11-25T12:21:03;6.40;85.90
38592;DHT22;24356;48.460;11.450;2022-11-25T12:29:12;6.50;85.50
38592;DHT22;24356;48.460;11.450;2022-11-25T12:31:49;6.60;85.40
38592;DHT22;24356;48.460;11.450;2022-11-25T12:37:04;6.80;85.30
38592;DHT22;24356;48.460;11.450;2022-11-25T12:39:43;6.90;85.30
38592;DHT22;24356;48.460;11.450;2022-11-25T12:42:17;7.00;84.70
38592;DHT22;24356;48.460;11.450;2022-11-25T12:44:56;7.00;84.70
38592;DHT22;24356;48.460;11.450;2022-11-25T12:47:24;7.10;84.70
38592;DHT22;24356;48.460;11.450;2022-11-25T12:52:52;7.30;84.70
38592;DHT22;24356;48.460;11.450;2022-11-25T12:55:26;7.40;84.50
38592;DHT22;24356;48.460;11.450;2022-11-25T13:01:05;7.40;83.90
38592;DHT22;24356;48.460;11.450;2022-11-25T13:14:24;7.50;83.90
38592;DHT22;24356;48.460;11.450;2022-11-25T13:16:52;7.60;83.80
38592;DHT22;24356;48.460;11.450;2022-11-25T13:19:20;7.60;83.70
38592;DHT22;24356;48.460;11.450;2022-11-25T13:21:59;7.60;83.60
38592;DHT22;24356;48.460;11.450;2022-11-25T13:24:39;7.60;83.50
38592;DHT22;24356;48.460;11.450;2022-11-25T13:29:54;7.60;83.60
38592;DHT22;24356;48.460;11.450;2022-11-25T13:37:52;7.60;83.40
38592;DHT22;24356;48.460;11.450;2022-11-25T13:42:51;7.60;83.50
38592;DHT22;24356;48.460;11.450;2022-11-25T13:45:38;7.60;83.60
38592;DHT22;24356;48.460;11.450;2022-11-25T13:48:19;7.60;83.70
38592;DHT22;24356;48.460;11.450;2022-11-25T13:50:48;7.60;83.70
38592;DHT22;24356;48.460;11.450;2022-11-25T13:53:33;7.60;83.70
38592;DHT22;24356;48.460;11.450;2022-11-25T14:04:13;7.60;83.80
38592;DHT22;24356;48.460;11.450;2022-11-25T14:09:28;7.50;83.80
38592;DHT22;24356;48.460;11.450;2022-11-25T14:15:23;7.50;83.70
38592;DHT22;24356;48.460;11.450;2022-11-25T14:21:00;7.40;83.80
38592;DHT22;24356;48.460;11.450;2022-11-25T14:23:52;7.40;83.70
38592;DHT22;24356;48.460;11.450;2022-11-25T14:26:27;7.30;83.70
38592;DHT22;24356;48.460;11.450;2022-11-25T14:28:59;7.30;83.80
38592;DHT22;24356;48.460;11.450;2022-11-25T14:31:46;7.30;83.70
38592;DHT22;24356;48.460;11.450;2022-11-25T14:34:20;7.20;83.90
38592;DHT22;24356;48.460;11.450;2022-11-25T14:37:37;7.20;84.10
38592;DHT22;24356;48.460;11.450;2022-11-25T14:39:54;7.20;83.90
38592;DHT22;24356;48.460;11.450;2022-11-25T14:42:22;7.10;83.90
38592;DHT22;24356;48.460;11.450;2022-11-25T14:44:54;7.10;84.30
38592;DHT22;24356;48.460;11.450;2022-11-25T14:47:24;7.10;84.50
38592;DHT22;24356;48.460;11.450;2022-11-25T14:49:53;7.00;84.30
38592;DHT22;24356;48.460;11.450;2022-11-25T14:52:33;7.00;84.50
38592;DHT22;24356;48.460;11.450;2022-11-25T14:55:04;7.00;84.50
38592;DHT22;24356;48.460;11.450;2022-11-25T14:57:39;6.90;84.50
38592;DHT22;24356;48.460;11.450;2022-11-25T15:00:12;6.90;84.50
38592;DHT22;24356;48.460;11.450;2022-11-25T15:02:57;6.90;84.50
38592;DHT22;24356;48.460;11.450;2022-11-25T15:05:26;6.90;84.90
38592;DHT22;24356;48.460;11.450;2022-11-25T15:07:56;6.80;84.70
38592;DHT22;24356;48.460;11.450;2022-11-25T15:13:31;6.80;84.70
38592;DHT22;24356;48.460;11.450;2022-11-25T15:16:04;6.80;85.30
38592;DHT22;24356;48.460;11.450;2022-11-25T15:18:31;6.70;85.30
38592;DHT22;24356;48.460;11.450;2022-11-25T15:20:59;6.70;84.90
38592;DHT22;24356;48.460;11.450;2022-11-25T15:23:28;6.70;85.40
38592;DHT22;24356;48.460;11.450;2022-11-25T15:25:57;6.60;85.40
38592;DHT22;24356;48.460;11.450;2022-11-25T15:28:23;6.60;85.30
38592;DHT22;24356;48.460;11.450;2022-11-25T15:31:06;6.50;85.50
38592;DHT22;24356;48.460;11.450;2022-11-25T15:33:34;6.50;85.60
38592;DHT22;24356;48.460;11.450;2022-11-25T15:36:00;6.50;85.60
38592;DHT22;24356;48.460;11.450;2022-11-25T15:38:36;6.50;85.90
38592;DHT22;24356;48.460;11.450;2022-11-25T15:41:02;6.40;85.60
38592;DHT22;24356;48.460;11.450;2022-11-25T15:43:30;6.40;85.90
38592;DHT22;24356;48.460;11.450;2022-11-25T15:46:00;6.40;86.10
38592;DHT22;24356;48.460;11.450;2022-11-25T15:48:28;6.40;86.50
38592;DHT22;24356;48.460;11.450;2022-11-25T15:56:39;6.30;86.60
38592;DHT22;24356;48.460;11.450;2022-11-25T16:07:52;6.20;86.80
38592;DHT22;24356;48.460;11.450;2022-11-25T16:13:26;6.20;87.00
38592;DHT22;24356;48.460;11.450;2022-11-25T16:15:59;6.20;87.50
38592;DHT22;24356;48.460;11.450;2022-11-25T16:21:15;6.10;87.10
38592;DHT22;24356;48.460;11.450;2022-11-25T16:23:51;6.10;87.20
38592;DHT22;24356;48.460;11.450;2022-11-25T16:26:28;6.10;87.40
38592;DHT22;24356;48.460;11.450;2022-11-25T16:28:56;6.10;87.30
38592;DHT22;24356;48.460;11.450;2022-11-25T16:31:22;6.10;87.30
38592;DHT22;24356;48.460;11.450;2022-11-25T16:33:49;6.00;87.50
38592;DHT22;24356;48.460;11.450;2022-11-25T16:36:17;6.00;87.70
38592;DHT22;24356;48.460;11.450;2022-11-25T16:38:42;6.00;87.50
38592;DHT22;24356;48.460;11.450;2022-11-25T16:41:13;6.00;87.60
38592;DHT22;24356;48.460;11.450;2022-11-25T16:43:44;6.00;87.60
38592;DHT22;24356;48.460;11.450;2022-11-25T16:46:14;6.00;87.90
38592;DHT22;24356;48.460;11.450;2022-11-25T16:48:41;6.00;88.00
38592;DHT22;24356;48.460;11.450;2022-11-25T16:51:15;6.00;88.00
38592;DHT22;24356;48.460;11.450;2022-11-25T16:53:41;6.00;87.60
38592;DHT22;24356;48.460;11.450;2022-11-25T16:56:23;6.00;87.90
38592;DHT22;24356;48.460;11.450;2022-11-25T16:58:50;5.90;87.90
38592;DHT22;24356;48.460;11.450;2022-11-25T17:01:17;5.90;88.00
38592;DHT22;24356;48.460;11.450;2022-11-25T17:03:43;5.90;88.40
38592;DHT22;24356;48.460;11.450;2022-11-25T17:08:39;5.90;88.30
38592;DHT22;24356;48.460;11.450;2022-11-25T17:11:07;5.90;88.30
38592;DHT22;24356;48.460;11.450;2022-11-25T17:13:34;5.90;88.50
38592;DHT22;24356;48.460;11.450;2022-11-25T17:16:04;5.90;88.50
38592;DHT22;24356;48.460;11.450;2022-11-25T17:18:29;5.90;88.40
38592;DHT22;24356;48.460;11.450;2022-11-25T17:20:55;5.90;88.10
38592;DHT22;24356;48.460;11.450;2022-11-25T17:23:21;5.90;88.20
38592;DHT22;24356;48.460;11.450;2022-11-25T17:25:49;5.90;88.30
38592;DHT22;24356;48.460;11.450;2022-11-25T17:28:16;5.80;88.60
38592;DHT22;24356;48.460;11.450;2022-11-25T17:30:44;5.80;88.70
38592;DHT22;24356;48.460;11.450;2022-11-25T17:33:17;5.80;88.50
38592;DHT22;24356;48.460;11.450;2022-11-25T17:35:43;5.80;88.60
38592;DHT22;24356;48.460;11.450;2022-11-25T17:38:15;5.80;88.60
38592;DHT22;24356;48.460;11.450;2022-11-25T17:40:42;5.80;89.20
38592;DHT22;24356;48.460;11.450;2022-11-25T17:43:16;5.80;89.00
38592;DHT22;24356;48.460;11.450;2022-11-25T17:45:43;5.70;89.00
38592;DHT22;24356;48.460;11.450;2022-11-25T17:48:12;5.70;89.20
38592;DHT22;24356;48.460;11.450;2022-11-25T17:50:38;5.70;89.20
38592;DHT22;24356;48.460;11.450;2022-11-25T17:53:04;5.70;89.20
38592;DHT22;24356;48.460;11.450;2022-11-25T17:55:31;5.70;89.30
38592;DHT22;24356;48.460;11.450;2022-11-25T17:57:57;5.70;89.30
38592;DHT22;24356;48.460;11.450;2022-11-25T18:00:23;5.60;89.20
38592;DHT22;24356;48.460;11.450;2022-11-25T18:02:49;5.60;89.40
38592;DHT22;24356;48.460;11.450;2022-11-25T18:05:25;5.60;89.70
38592;DHT22;24356;48.460;11.450;2022-11-25T18:07:51;5.60;89.70
38592;DHT22;24356;48.460;11.450;2022-11-25T18:10:19;5.60;89.90
38592;DHT22;24356;48.460;11.450;2022-11-25T18:12:46;5.50;89.90
38592;DHT22;24356;48.460;11.450;2022-11-25T18:15:16;5.50;90.10